Time;durP1;ratioP1;P1;durP2;ratioP2;P2;SDS_P1;SDS_P2;PMS_P1;PMS_P2;Temp;Humidity;BMP_temperature;BMP_pressure;BME280_temperature;BME280_humidity;BME280_pressure;Samples;Min_cycle;Max_cycle;Signal;HPM_P1;HPM_P2
2022/07/28 00:01:51;;;;;;;;;;;15.60;62.80;;;;;;5048388;28;20371;-82
2022/07/28 00:04:16;;;;;;;;;;;15.70;61.80;;;;;;5044266;28;19962;-83
2022/07/28 00:06:41;;;;;;;;;;;15.60;62.50;;;;;;5044512;28;19952;-83
2022/07/28 00:09:07;;;;;;;;;;;15.50;62.70;;;;;;5045385;28;19920;-83
2022/07/28 00:11:33;;;;;;;;;;;15.50;62.60;;;;;;5049669;28;19917;-82
2022/07/28 00:13:58;;;;;;;;;;;15.40;63.40;;;;;;5065805;28;19972;-83
2022/07/28 00:16:23;;;;;;;;;;;15.30;64.00;;;;;;5045226;28;19913;-83
2022/07/28 00:18:49;;;;;;;;;;;15.30;64.20;;;;;;5048803;28;19916;-83
2022/07/28 00:21:14;;;;;;;;;;;15.50;62.70;;;;;;5065431;28;19928;-83
2022/07/28 00:23:40;;;;;;;;;;;15.40;63.00;;;;;;5046700;28;20291;-83
2022/07/28 00:26:07;;;;;;;;;;;15.60;62.30;;;;;;5050605;28;20347;-83
2022/07/28 00:28:32;;;;;;;;;;;15.60;62.50;;;;;;5047572;28;19916;-84
2022/07/28 00:30:58;;;;;;;;;;;15.50;62.50;;;;;;5048024;28;20001;-83
2022/07/28 00:33:23;;;;;;;;;;;15.40;62.80;;;;;;5043417;28;20004;-84
2022/07/28 00:35:49;;;;;;;;;;;15.40;63.00;;;;;;5039292;28;19917;-83
2022/07/28 00:38:15;;;;;;;;;;;15.30;64.70;;;;;;5066512;28;19967;-83
2022/07/28 00:43:24;;;;;;;;;;;15.20;64.30;;;;;;5037625;28;19967;-83
2022/07/28 00:45:50;;;;;;;;;;;15.30;63.90;;;;;;5057204;28;19921;-83
2022/07/28 00:48:15;;;;;;;;;;;15.30;64.50;;;;;;5043331;28;19909;-83
2022/07/28 00:50:42;;;;;;;;;;;15.30;64.40;;;;;;5051362;28;20394;-82
2022/07/28 00:53:07;;;;;;;;;;;15.40;63.40;;;;;;5053955;28;19982;-83
2022/07/28 00:55:33;;;;;;;;;;;15.30;63.90;;;;;;5047735;28;20368;-83
2022/07/28 00:57:59;;;;;;;;;;;15.30;63.70;;;;;;5050726;28;19942;-83
2022/07/28 01:00:24;;;;;;;;;;;15.20;63.90;;;;;;5047490;28;19909;-83
2022/07/28 01:02:50;;;;;;;;;;;15.20;64.20;;;;;;5051609;28;20302;-83
2022/07/28 01:05:17;;;;;;;;;;;15.30;64.70;;;;;;5046786;28;20353;-83
2022/07/28 01:07:47;;;;;;;;;;;15.20;64.50;;;;;;5048219;28;19920;-83
2022/07/28 01:10:25;;;;;;;;;;;15.30;64.10;;;;;;5060707;28;20311;-83
2022/07/28 01:12:57;;;;;;;;;;;15.10;65.00;;;;;;5066322;28;19921;-83
2022/07/28 01:15:22;;;;;;;;;;;15.10;65.10;;;;;;5044978;28;19991;-83
2022/07/28 01:17:55;;;;;;;;;;;15.10;64.90;;;;;;5046308;28;19959;-83
2022/07/28 01:20:24;;;;;;;;;;;15.10;64.70;;;;;;5052555;28;19924;-83
2022/07/28 01:22:57;;;;;;;;;;;15.00;65.20;;;;;;5056711;28;19947;-83
2022/07/28 01:25:30;;;;;;;;;;;15.00;64.90;;;;;;5050263;28;20008;-83
2022/07/28 01:28:10;;;;;;;;;;;15.00;65.20;;;;;;5051476;28;19913;-83
2022/07/28 01:30:42;;;;;;;;;;;15.00;66.00;;;;;;5048679;28;19912;-82
2022/07/28 01:33:16;;;;;;;;;;;15.00;65.50;;;;;;5065329;28;20024;-83
2022/07/28 01:35:46;;;;;;;;;;;14.90;65.80;;;;;;5055375;28;19917;-83
2022/07/28 01:38:12;;;;;;;;;;;15.00;65.90;;;;;;5046633;28;19936;-83
2022/07/28 01:40:39;;;;;;;;;;;15.00;65.60;;;;;;5050136;28;19912;-83
2022/07/28 01:43:06;;;;;;;;;;;14.90;66.00;;;;;;5057612;28;19917;-83
2022/07/28 01:45:32;;;;;;;;;;;14.70;66.40;;;;;;5049877;28;19924;-83
2022/07/28 01:47:59;;;;;;;;;;;14.70;66.90;;;;;;5041413;28;19921;-84
2022/07/28 01:50:25;;;;;;;;;;;14.70;67.00;;;;;;5049419;28;19913;-83
2022/07/28 01:52:52;;;;;;;;;;;14.80;66.80;;;;;;5055422;28;19921;-83
2022/07/28 01:55:19;;;;;;;;;;;14.80;66.70;;;;;;5041518;28;19913;-83
2022/07/28 01:57:45;;;;;;;;;;;14.80;66.50;;;;;;5049792;28;20380;-83
2022/07/28 02:00:12;;;;;;;;;;;14.70;67.00;;;;;;5050625;28;19963;-83
2022/07/28 02:02:38;;;;;;;;;;;14.60;67.20;;;;;;5054890;28;19999;-83
2022/07/28 02:05:04;;;;;;;;;;;14.70;67.10;;;;;;5053708;28;19917;-83
2022/07/28 02:07:31;;;;;;;;;;;14.70;67.70;;;;;;5049812;28;19916;-83
2022/07/28 02:09:57;;;;;;;;;;;14.70;67.40;;;;;;5049819;28;19917;-83
2022/07/28 02:12:23;;;;;;;;;;;14.60;67.90;;;;;;5047699;28;19952;-83
2022/07/28 02:14:49;;;;;;;;;;;14.60;67.70;;;;;;5046195;28;19956;-83
2022/07/28 02:17:19;;;;;;;;;;;14.60;67.70;;;;;;5044472;28;20094;-82
2022/07/28 02:19:45;;;;;;;;;;;14.60;67.60;;;;;;5049007;28;19914;-83
2022/07/28 02:22:11;;;;;;;;;;;14.60;67.50;;;;;;5063847;28;20450;-83
2022/07/28 02:24:37;;;;;;;;;;;14.60;67.60;;;;;;5048625;28;19924;-83
2022/07/28 02:27:09;;;;;;;;;;;14.70;67.00;;;;;;5047615;28;20315;-83
2022/07/28 02:29:40;;;;;;;;;;;14.50;68.30;;;;;;5051313;28;19921;-83
2022/07/28 02:32:06;;;;;;;;;;;14.40;68.70;;;;;;5045642;28;19917;-83
2022/07/28 02:34:37;;;;;;;;;;;14.20;69.00;;;;;;5049123;28;19944;-83
2022/07/28 02:37:03;;;;;;;;;;;14.10;69.60;;;;;;5056409;28;19917;-83
2022/07/28 02:39:35;;;;;;;;;;;14.10;70.20;;;;;;5050666;28;19965;-83
2022/07/28 02:42:04;;;;;;;;;;;14.20;69.30;;;;;;5055789;28;19921;-82
2022/07/28 02:44:33;;;;;;;;;;;14.20;69.60;;;;;;5040629;28;20399;-82
2022/07/28 02:46:59;;;;;;;;;;;14.20;69.10;;;;;;5048420;28;20347;-83
2022/07/28 02:49:29;;;;;;;;;;;14.20;69.60;;;;;;5059125;28;19913;-83
2022/07/28 02:52:02;;;;;;;;;;;14.20;69.60;;;;;;5069055;28;19920;-87
2022/07/28 02:54:29;;;;;;;;;;;14.30;69.00;;;;;;5057754;28;19963;-87
2022/07/28 02:56:56;;;;;;;;;;;14.30;69.30;;;;;;5045442;28;19966;-91
2022/07/28 02:59:22;;;;;;;;;;;14.20;70.10;;;;;;5046716;28;20414;-85
2022/07/28 03:01:48;;;;;;;;;;;14.20;69.60;;;;;;5044448;28;19913;-89
2022/07/28 03:04:14;;;;;;;;;;;14.20;69.60;;;;;;5042327;28;19924;-88
2022/07/28 03:06:40;;;;;;;;;;;14.20;69.90;;;;;;5048870;28;19924;-84
2022/07/28 03:09:09;;;;;;;;;;;14.20;69.70;;;;;;5053651;28;20011;-84
2022/07/28 03:11:34;;;;;;;;;;;14.30;69.10;;;;;;5043724;28;19931;-83
2022/07/28 03:14:00;;;;;;;;;;;14.30;69.20;;;;;;5050664;28;20003;-84
2022/07/28 03:16:25;;;;;;;;;;;14.20;69.20;;;;;;5054473;28;19951;-84
2022/07/28 03:18:51;;;;;;;;;;;14.10;69.70;;;;;;5050427;28;19913;-83
2022/07/28 03:21:16;;;;;;;;;;;14.00;70.80;;;;;;5047551;28;20276;-84
2022/07/28 03:23:42;;;;;;;;;;;14.00;70.60;;;;;;5068773;28;20012;-83
2022/07/28 03:26:10;;;;;;;;;;;13.90;70.80;;;;;;5062266;28;19924;-84
2022/07/28 03:28:37;;;;;;;;;;;13.80;71.40;;;;;;5054902;28;19920;-83
2022/07/28 03:31:04;;;;;;;;;;;13.80;71.00;;;;;;5060581;28;19909;-84
2022/07/28 03:33:30;;;;;;;;;;;13.80;71.10;;;;;;5051093;28;20014;-83
2022/07/28 03:35:58;;;;;;;;;;;13.70;71.50;;;;;;5042014;28;19923;-83
2022/07/28 03:38:36;;;;;;;;;;;13.70;71.50;;;;;;5041206;28;20387;-83
2022/07/28 03:41:02;;;;;;;;;;;13.90;71.00;;;;;;5073577;28;19912;-83
2022/07/28 03:43:27;;;;;;;;;;;13.80;71.40;;;;;;5049602;28;19913;-81
2022/07/28 03:45:53;;;;;;;;;;;13.80;71.20;;;;;;5041351;28;20016;-82
2022/07/28 03:48:22;;;;;;;;;;;13.80;72.10;;;;;;5063231;28;20367;-81
2022/07/28 03:50:47;;;;;;;;;;;13.90;71.50;;;;;;5045169;28;19913;-83
2022/07/28 03:53:17;;;;;;;;;;;14.00;71.10;;;;;;5048633;28;19939;-80
2022/07/28 03:55:45;;;;;;;;;;;13.90;71.30;;;;;;5049533;28;19952;-79
2022/07/28 03:58:10;;;;;;;;;;;13.90;71.30;;;;;;5058439;28;20340;-80
2022/07/28 04:00:36;;;;;;;;;;;13.80;71.60;;;;;;5046350;28;19913;-80
2022/07/28 04:03:01;;;;;;;;;;;13.70;72.00;;;;;;5059205;28;19978;-80
2022/07/28 04:05:27;;;;;;;;;;;13.70;71.80;;;;;;5037919;28;19955;-80
2022/07/28 04:07:52;;;;;;;;;;;13.80;71.80;;;;;;5054086;28;19921;-80
2022/07/28 04:10:17;;;;;;;;;;;13.80;71.70;;;;;;5046245;28;19913;-81
2022/07/28 04:12:44;;;;;;;;;;;13.70;72.20;;;;;;5082634;28;19924;-80
2022/07/28 04:15:13;;;;;;;;;;;13.80;72.00;;;;;;5052860;28;19921;-80
2022/07/28 04:17:39;;;;;;;;;;;13.90;71.60;;;;;;5055467;28;20434;-80
2022/07/28 04:20:05;;;;;;;;;;;13.90;71.40;;;;;;5054121;28;19913;-80
2022/07/28 04:22:30;;;;;;;;;;;13.80;71.70;;;;;;5039863;28;19913;-79
2022/07/28 04:24:56;;;;;;;;;;;13.70;72.00;;;;;;5039470;28;19928;-80
2022/07/28 04:27:21;;;;;;;;;;;13.80;72.20;;;;;;5043903;28;19909;-80
2022/07/28 04:29:46;;;;;;;;;;;13.60;72.80;;;;;;5057485;28;20307;-80
2022/07/28 04:32:12;;;;;;;;;;;13.50;73.10;;;;;;5061712;28;20403;-80
2022/07/28 04:34:37;;;;;;;;;;;13.60;72.90;;;;;;5043751;28;19921;-80
2022/07/28 04:37:03;;;;;;;;;;;13.60;72.90;;;;;;5047999;28;19991;-80
2022/07/28 04:39:28;;;;;;;;;;;13.60;73.40;;;;;;5037154;28;19909;-81
2022/07/28 04:41:54;;;;;;;;;;;13.50;74.00;;;;;;5034965;28;19913;-81
2022/07/28 04:44:19;;;;;;;;;;;13.50;73.80;;;;;;5051866;28;19916;-81
2022/07/28 04:46:45;;;;;;;;;;;13.60;74.10;;;;;;5038171;28;20299;-82
2022/07/28 04:49:10;;;;;;;;;;;13.70;73.30;;;;;;5059872;28;19925;-82
2022/07/28 04:51:35;;;;;;;;;;;13.90;72.70;;;;;;5050787;28;20375;-81
2022/07/28 04:54:01;;;;;;;;;;;13.90;72.70;;;;;;5054746;28;20371;-81
2022/07/28 04:56:27;;;;;;;;;;;13.90;72.90;;;;;;5054055;28;19912;-82
2022/07/28 04:58:52;;;;;;;;;;;14.10;71.90;;;;;;5052111;28;20528;-81
2022/07/28 05:01:20;;;;;;;;;;;14.10;72.20;;;;;;5048979;28;20003;-82
2022/07/28 05:03:45;;;;;;;;;;;14.00;72.30;;;;;;5053917;28;19916;-81
2022/07/28 05:06:11;;;;;;;;;;;14.00;72.80;;;;;;5053639;28;19914;-81
2022/07/28 05:08:36;;;;;;;;;;;14.00;73.10;;;;;;5043281;28;20376;-82
2022/07/28 05:11:02;;;;;;;;;;;14.10;72.80;;;;;;5046613;28;19924;-81
2022/07/28 05:13:28;;;;;;;;;;;14.10;71.80;;;;;;5046549;28;20299;-81
2022/07/28 05:15:53;;;;;;;;;;;14.10;72.50;;;;;;5054955;28;20284;-82
2022/07/28 05:18:19;;;;;;;;;;;14.00;72.50;;;;;;5054981;28;19913;-81
2022/07/28 05:20:44;;;;;;;;;;;14.10;72.10;;;;;;5038726;28;20375;-82
2022/07/28 05:23:11;;;;;;;;;;;14.00;72.30;;;;;;5036753;28;19995;-82
2022/07/28 05:25:37;;;;;;;;;;;14.00;72.80;;;;;;5050878;28;19913;-81
2022/07/28 05:28:02;;;;;;;;;;;13.90;73.20;;;;;;5065890;28;19917;-82
2022/07/28 05:30:28;;;;;;;;;;;14.00;73.10;;;;;;5036517;28;20268;-82
2022/07/28 05:32:58;;;;;;;;;;;14.00;72.80;;;;;;5045914;28;20269;-81
2022/07/28 05:35:23;;;;;;;;;;;14.10;72.60;;;;;;5041234;28;19923;-81
2022/07/28 05:37:49;;;;;;;;;;;14.00;72.90;;;;;;5051320;28;19948;-82
2022/07/28 05:40:15;;;;;;;;;;;14.00;73.40;;;;;;5050581;28;19921;-81
2022/07/28 05:42:41;;;;;;;;;;;14.10;73.00;;;;;;5047664;28;19917;-81
2022/07/28 05:45:07;;;;;;;;;;;14.20;72.80;;;;;;5045542;28;20407;-82
2022/07/28 05:47:59;;;;;;;;;;;14.20;72.50;;;;;;5044802;28;20016;-81
2022/07/28 05:50:25;;;;;;;;;;;14.20;72.50;;;;;;5050060;28;19913;-83
2022/07/28 05:52:50;;;;;;;;;;;14.20;72.40;;;;;;5046230;28;20433;-81
2022/07/28 05:55:16;;;;;;;;;;;14.40;72.30;;;;;;5047931;28;20403;-81
2022/07/28 05:57:42;;;;;;;;;;;14.30;72.10;;;;;;5038705;28;19936;-80
2022/07/28 06:00:08;;;;;;;;;;;14.50;71.80;;;;;;5039479;28;19920;-79
2022/07/28 06:02:34;;;;;;;;;;;14.50;72.20;;;;;;5043687;28;20265;-81
2022/07/28 06:05:00;;;;;;;;;;;14.50;72.50;;;;;;5048766;28;19928;-81
2022/07/28 06:07:25;;;;;;;;;;;14.50;71.90;;;;;;5045895;28;19913;-81
2022/07/28 06:09:51;;;;;;;;;;;14.60;71.90;;;;;;5050771;28;19921;-82
2022/07/28 06:12:16;;;;;;;;;;;14.80;71.30;;;;;;5053170;28;19919;-81
2022/07/28 06:14:42;;;;;;;;;;;14.90;70.90;;;;;;5051666;28;19931;-81
2022/07/28 06:17:07;;;;;;;;;;;14.80;71.00;;;;;;5048044;28;19915;-80
2022/07/28 06:19:33;;;;;;;;;;;15.00;70.40;;;;;;5041692;28;19908;-81
2022/07/28 06:21:58;;;;;;;;;;;14.90;70.40;;;;;;5038515;28;19921;-80
2022/07/28 06:24:24;;;;;;;;;;;14.90;70.70;;;;;;5047674;28;19955;-80
2022/07/28 06:26:50;;;;;;;;;;;14.80;70.70;;;;;;5038275;28;19918;-89
2022/07/28 06:29:15;;;;;;;;;;;14.80;70.60;;;;;;5048801;28;20369;-83
2022/07/28 06:31:41;;;;;;;;;;;14.80;70.60;;;;;;5040315;28;19928;-82
2022/07/28 06:34:06;;;;;;;;;;;14.90;70.10;;;;;;5043354;28;19913;-83
2022/07/28 06:36:32;;;;;;;;;;;14.90;70.60;;;;;;5051189;28;19913;-83
2022/07/28 06:38:57;;;;;;;;;;;14.90;70.40;;;;;;5043703;28;19918;-83
2022/07/28 06:41:22;;;;;;;;;;;15.20;69.50;;;;;;5044394;28;19917;-83
2022/07/28 06:43:50;;;;;;;;;;;15.30;69.50;;;;;;5048962;28;19917;-83
2022/07/28 06:46:18;;;;;;;;;;;15.40;69.30;;;;;;5043759;28;20375;-83
2022/07/28 06:48:44;;;;;;;;;;;15.50;69.60;;;;;;5033709;28;19909;-83
2022/07/28 06:51:10;;;;;;;;;;;15.60;69.70;;;;;;5047009;28;19943;-83
2022/07/28 06:53:36;;;;;;;;;;;15.60;67.70;;;;;;5074632;28;19909;-83
2022/07/28 06:56:02;;;;;;;;;;;15.70;68.80;;;;;;5075008;28;19932;-83
2022/07/28 06:58:28;;;;;;;;;;;15.90;67.40;;;;;;5088390;28;19913;-84
2022/07/28 07:00:53;;;;;;;;;;;16.00;67.20;;;;;;5065898;28;19999;-82
2022/07/28 07:03:19;;;;;;;;;;;16.00;66.70;;;;;;5065552;28;19916;-82
2022/07/28 07:05:46;;;;;;;;;;;16.10;67.40;;;;;;5068383;28;21355;-83
2022/07/28 07:08:11;;;;;;;;;;;16.00;66.80;;;;;;5051980;28;19954;-83
2022/07/28 07:10:37;;;;;;;;;;;16.00;66.40;;;;;;5054928;28;20635;-83
2022/07/28 07:13:02;;;;;;;;;;;16.10;65.90;;;;;;5057229;28;19942;-83
2022/07/28 07:15:28;;;;;;;;;;;16.00;66.30;;;;;;5055290;28;19913;-83
2022/07/28 07:17:53;;;;;;;;;;;16.00;66.30;;;;;;5050972;28;19919;-83
2022/07/28 07:20:19;;;;;;;;;;;16.00;66.40;;;;;;5046925;28;19955;-83
2022/07/28 07:22:45;;;;;;;;;;;16.10;66.90;;;;;;5045435;28;20397;-83
2022/07/28 07:25:14;;;;;;;;;;;16.40;65.20;;;;;;5045735;28;20446;-83
2022/07/28 07:27:40;;;;;;;;;;;16.50;65.60;;;;;;5041230;28;20272;-83
2022/07/28 07:30:06;;;;;;;;;;;16.50;65.50;;;;;;5047411;28;19920;-83
2022/07/28 07:32:31;;;;;;;;;;;16.70;64.70;;;;;;5050181;28;19921;-82
2022/07/28 07:34:57;;;;;;;;;;;16.90;63.80;;;;;;5052394;28;19920;-83
2022/07/28 07:37:23;;;;;;;;;;;16.90;62.70;;;;;;5049911;28;19920;-83
2022/07/28 07:39:49;;;;;;;;;;;16.90;64.10;;;;;;5039501;28;19913;-82
2022/07/28 07:42:14;;;;;;;;;;;17.00;62.90;;;;;;5045314;28;20030;-83
2022/07/28 07:44:40;;;;;;;;;;;16.80;62.70;;;;;;5049357;28;19936;-83
2022/07/28 07:47:07;;;;;;;;;;;16.80;62.20;;;;;;5044791;28;19913;-82
2022/07/28 07:49:32;;;;;;;;;;;16.80;61.80;;;;;;5059926;28;20391;-83
2022/07/28 07:51:58;;;;;;;;;;;16.90;63.20;;;;;;5052140;28;19913;-83
2022/07/28 07:54:23;;;;;;;;;;;17.00;62.80;;;;;;5052102;28;19919;-83
2022/07/28 07:56:49;;;;;;;;;;;17.10;62.70;;;;;;5044471;28;20433;-83
2022/07/28 07:59:14;;;;;;;;;;;17.50;61.20;;;;;;5042585;28;19913;-83
2022/07/28 08:01:39;;;;;;;;;;;17.70;59.50;;;;;;5067526;28;19908;-83
2022/07/28 08:04:05;;;;;;;;;;;17.70;59.50;;;;;;5051049;28;20421;-83
2022/07/28 08:06:30;;;;;;;;;;;17.90;59.50;;;;;;5051567;28;19916;-83
2022/07/28 08:08:56;;;;;;;;;;;17.90;59.00;;;;;;5047734;28;19917;-83
2022/07/28 08:11:21;;;;;;;;;;;17.90;59.00;;;;;;5047833;28;20062;-83
2022/07/28 08:13:47;;;;;;;;;;;17.80;59.20;;;;;;5043318;28;19916;-83
2022/07/28 08:16:12;;;;;;;;;;;17.80;59.30;;;;;;5061057;28;20340;-83
2022/07/28 08:18:38;;;;;;;;;;;17.80;60.10;;;;;;5049229;28;19964;-83
2022/07/28 08:21:03;;;;;;;;;;;17.70;60.60;;;;;;5044397;28;19963;-83
2022/07/28 08:23:29;;;;;;;;;;;17.90;60.00;;;;;;5051087;28;20007;-83
2022/07/28 08:25:54;;;;;;;;;;;17.90;59.70;;;;;;5057309;28;19912;-82
2022/07/28 08:28:20;;;;;;;;;;;17.90;59.30;;;;;;5055465;28;19909;-83
2022/07/28 08:30:45;;;;;;;;;;;17.90;59.20;;;;;;5057087;28;19913;-83
2022/07/28 08:33:11;;;;;;;;;;;18.00;60.10;;;;;;5056883;28;19916;-82
2022/07/28 08:35:36;;;;;;;;;;;18.00;59.20;;;;;;5053581;28;19913;-82
2022/07/28 08:38:02;;;;;;;;;;;18.00;59.20;;;;;;5052842;28;19917;-83
2022/07/28 08:40:28;;;;;;;;;;;18.00;58.90;;;;;;5047670;28;19912;-80
2022/07/28 08:43:02;;;;;;;;;;;18.30;58.10;;;;;;5049243;28;20383;-82
2022/07/28 08:45:29;;;;;;;;;;;18.40;57.50;;;;;;5045388;28;19958;-81
2022/07/28 08:47:55;;;;;;;;;;;18.50;57.40;;;;;;5049937;28;19912;-82
2022/07/28 08:50:23;;;;;;;;;;;18.40;58.70;;;;;;5045546;28;19920;-81
2022/07/28 08:52:49;;;;;;;;;;;18.50;57.50;;;;;;5042591;28;19987;-81
2022/07/28 08:55:15;;;;;;;;;;;18.50;57.90;;;;;;5052572;28;19917;-81
2022/07/28 08:57:41;;;;;;;;;;;18.40;57.80;;;;;;5045844;28;19948;-82
2022/07/28 09:00:07;;;;;;;;;;;18.40;58.30;;;;;;5051755;28;20410;-81
2022/07/28 09:02:36;;;;;;;;;;;18.50;58.80;;;;;;5047992;28;19920;-81
2022/07/28 09:05:02;;;;;;;;;;;18.60;58.10;;;;;;5047641;28;19924;-81
2022/07/28 09:07:29;;;;;;;;;;;18.70;56.00;;;;;;5053301;28;19912;-81
2022/07/28 09:09:55;;;;;;;;;;;18.70;56.40;;;;;;5044328;28;19949;-82
2022/07/28 09:12:20;;;;;;;;;;;18.70;55.50;;;;;;5058967;28;20341;-82
2022/07/28 09:14:46;;;;;;;;;;;18.80;55.50;;;;;;5038608;28;19940;-81
2022/07/28 09:17:11;;;;;;;;;;;18.90;55.50;;;;;;5050159;28;19919;-82
2022/07/28 09:19:37;;;;;;;;;;;18.70;56.30;;;;;;5045125;28;20372;-83
2022/07/28 09:22:03;;;;;;;;;;;18.60;56.00;;;;;;5053308;28;19913;-80
2022/07/28 09:24:38;;;;;;;;;;;18.90;55.20;;;;;;5043104;28;20015;-80
2022/07/28 09:27:06;;;;;;;;;;;18.90;55.60;;;;;;5051894;28;19913;-79
2022/07/28 09:29:32;;;;;;;;;;;18.90;56.50;;;;;;5044115;28;19917;-81
2022/07/28 09:31:57;;;;;;;;;;;19.00;56.00;;;;;;5043797;28;19921;-80
2022/07/28 09:34:23;;;;;;;;;;;19.20;54.80;;;;;;5062204;28;19924;-80
2022/07/28 09:36:48;;;;;;;;;;;19.50;53.00;;;;;;5054629;28;19913;-82
2022/07/28 09:39:28;;;;;;;;;;;19.30;54.20;;;;;;5049215;28;20337;-80
2022/07/28 09:41:56;;;;;;;;;;;19.40;53.20;;;;;;5045338;28;19916;-82
2022/07/28 09:44:22;;;;;;;;;;;19.60;52.30;;;;;;5045595;28;19921;-83
2022/07/28 09:46:48;;;;;;;;;;;19.50;52.90;;;;;;5049612;28;20323;-82
2022/07/28 09:49:14;;;;;;;;;;;19.50;53.90;;;;;;5045340;28;19920;-82
2022/07/28 09:51:39;;;;;;;;;;;19.70;52.50;;;;;;5045949;28;19913;-82
2022/07/28 09:54:07;;;;;;;;;;;19.70;52.30;;;;;;5043272;28;20355;-82
2022/07/28 09:56:32;;;;;;;;;;;19.70;52.20;;;;;;5045024;28;19917;-81
2022/07/28 09:58:59;;;;;;;;;;;19.80;52.60;;;;;;5046001;28;19983;-82
2022/07/28 10:01:25;;;;;;;;;;;19.80;51.70;;;;;;5040826;28;19920;-82
2022/07/28 10:03:56;;;;;;;;;;;20.00;51.30;;;;;;5043067;28;19925;-82
2022/07/28 10:06:31;;;;;;;;;;;19.80;50.80;;;;;;5043710;28;19929;-81
2022/07/28 10:09:01;;;;;;;;;;;19.80;52.60;;;;;;5042454;28;19921;-82
2022/07/28 10:11:28;;;;;;;;;;;19.90;52.90;;;;;;5045681;28;20409;-82
2022/07/28 10:14:01;;;;;;;;;;;20.10;51.60;;;;;;5042468;28;19968;-82
2022/07/28 10:16:28;;;;;;;;;;;20.10;51.60;;;;;;5041352;28;19948;-82
2022/07/28 10:18:54;;;;;;;;;;;20.30;49.80;;;;;;5040884;28;19960;-82
2022/07/28 10:21:21;;;;;;;;;;;20.30;50.10;;;;;;5041087;28;20414;-83
2022/07/28 10:23:49;;;;;;;;;;;20.30;49.90;;;;;;5040246;28;19943;-83
2022/07/28 10:26:14;;;;;;;;;;;20.30;49.80;;;;;;5042967;28;19917;-81
2022/07/28 10:28:45;;;;;;;;;;;20.50;49.10;;;;;;5035473;28;19920;-82
2022/07/28 10:31:12;;;;;;;;;;;20.50;50.00;;;;;;5044723;28;19920;-82
2022/07/28 10:33:38;;;;;;;;;;;20.30;49.50;;;;;;5037277;28;20379;-82
2022/07/28 10:36:05;;;;;;;;;;;20.30;49.20;;;;;;5045479;28;19921;-81
2022/07/28 10:38:34;;;;;;;;;;;20.30;50.80;;;;;;5062970;28;19920;-82
2022/07/28 10:41:05;;;;;;;;;;;20.30;51.10;;;;;;5043465;28;19951;-82
2022/07/28 10:43:31;;;;;;;;;;;20.50;50.00;;;;;;5042152;28;20126;-87
2022/07/28 10:45:57;;;;;;;;;;;20.50;49.70;;;;;;5039778;28;20033;-85
2022/07/28 10:48:27;;;;;;;;;;;20.50;49.60;;;;;;5046568;28;19913;-86
2022/07/28 10:50:53;;;;;;;;;;;20.80;49.00;;;;;;5044439;28;19912;-83
2022/07/28 10:53:30;;;;;;;;;;;20.70;49.40;;;;;;5044332;28;19913;-84
2022/07/28 10:56:01;;;;;;;;;;;20.70;48.20;;;;;;5043575;28;20390;-84
2022/07/28 10:58:26;;;;;;;;;;;20.70;48.60;;;;;;5062546;28;19912;-85
2022/07/28 11:00:52;;;;;;;;;;;20.80;48.80;;;;;;5061292;28;20384;-80
2022/07/28 11:03:38;;;;;;;;;;;20.90;47.90;;;;;;5046506;28;19917;-82
2022/07/28 11:06:23;;;;;;;;;;;20.80;49.40;;;;;;5056358;28;19956;-85
2022/07/28 11:08:51;;;;;;;;;;;21.00;47.90;;;;;;5060691;28;19912;-84
2022/07/28 11:11:35;;;;;;;;;;;21.00;46.70;;;;;;5065396;28;19938;-83
2022/07/28 11:14:20;;;;;;;;;;;21.00;47.80;;;;;;5068089;28;19917;-84
2022/07/28 11:16:45;;;;;;;;;;;21.10;47.30;;;;;;5044160;28;19913;-85
2022/07/28 11:19:13;;;;;;;;;;;21.10;48.70;;;;;;5050180;28;19921;-84
2022/07/28 11:21:58;;;;;;;;;;;21.10;47.10;;;;;;5045911;28;19913;-84
2022/07/28 11:24:24;;;;;;;;;;;21.20;47.30;;;;;;5040694;28;19927;-84
2022/07/28 11:26:53;;;;;;;;;;;21.40;47.30;;;;;;5042040;28;19913;-83
2022/07/28 11:29:18;;;;;;;;;;;21.30;47.50;;;;;;5045410;28;19913;-84
2022/07/28 11:31:44;;;;;;;;;;;21.40;47.30;;;;;;5064303;22;19923;-76
2022/07/28 11:34:10;;;;;;;;;;;21.50;48.00;;;;;;5046314;28;20037;-79
2022/07/28 11:36:54;;;;;;;;;;;21.70;46.90;;;;;;5046980;28;19920;-79
2022/07/28 11:39:20;;;;;;;;;;;21.70;46.40;;;;;;5045336;28;20312;-79
2022/07/28 11:41:46;;;;;;;;;;;21.60;47.60;;;;;;5056216;28;20379;-80
2022/07/28 11:44:24;;;;;;;;;;;21.70;46.40;;;;;;5056078;28;19916;-79
2022/07/28 11:46:49;;;;;;;;;;;21.90;45.80;;;;;;5054157;28;19919;-78
2022/07/28 11:49:16;;;;;;;;;;;21.90;47.20;;;;;;5056096;28;20528;-82
2022/07/28 11:52:01;;;;;;;;;;;21.90;46.90;;;;;;5053886;28;19913;-79
2022/07/28 11:54:27;;;;;;;;;;;21.60;46.60;;;;;;5066699;28;19940;-80
2022/07/28 11:56:58;;;;;;;;;;;21.90;45.60;;;;;;5068944;28;19921;-81
2022/07/28 11:59:23;;;;;;;;;;;21.80;46.30;;;;;;5062778;28;20150;-80
2022/07/28 12:01:52;;;;;;;;;;;21.70;46.20;;;;;;5053000;28;20007;-80
2022/07/28 12:04:18;;;;;;;;;;;22.00;45.30;;;;;;5051314;28;19931;-80
2022/07/28 12:06:45;;;;;;;;;;;22.20;45.40;;;;;;5052653;28;19920;-80
2022/07/28 12:09:14;;;;;;;;;;;22.30;44.80;;;;;;5055874;28;19938;-79
2022/07/28 12:11:40;;;;;;;;;;;22.10;45.30;;;;;;5064499;28;19928;-80
2022/07/28 12:14:06;;;;;;;;;;;22.20;45.30;;;;;;5053400;28;19916;-80
2022/07/28 12:16:33;;;;;;;;;;;22.20;46.30;;;;;;5048685;28;19913;-79
2022/07/28 12:19:00;;;;;;;;;;;22.30;46.60;;;;;;5053907;28;20290;-79
2022/07/28 12:21:38;;;;;;;;;;;22.10;47.30;;;;;;5050761;28;19913;-78
2022/07/28 12:24:04;;;;;;;;;;;22.10;47.60;;;;;;5053044;28;19925;-78
2022/07/28 12:26:34;;;;;;;;;;;22.10;46.60;;;;;;5047357;28;19970;-80
2022/07/28 12:29:00;;;;;;;;;;;22.20;45.10;;;;;;5050693;28;19920;-81
2022/07/28 12:31:28;;;;;;;;;;;22.30;45.90;;;;;;5054050;28;20003;-82
2022/07/28 12:33:57;;;;;;;;;;;22.40;45.40;;;;;;5049554;28;19921;-78
2022/07/28 12:36:23;;;;;;;;;;;22.40;44.30;;;;;;5045374;28;20058;-79
2022/07/28 12:38:52;;;;;;;;;;;22.40;45.70;;;;;;5048425;28;20419;-79
2022/07/28 12:41:18;;;;;;;;;;;22.20;45.40;;;;;;5046789;28;20428;-79
2022/07/28 12:43:53;;;;;;;;;;;22.10;46.40;;;;;;5047273;28;20016;-78
2022/07/28 12:46:23;;;;;;;;;;;22.10;46.80;;;;;;5043971;28;19919;-78
2022/07/28 12:48:48;;;;;;;;;;;22.30;47.50;;;;;;5046951;28;20011;-78
2022/07/28 12:51:29;;;;;;;;;;;22.30;46.20;;;;;;5041273;28;20329;-78
2022/07/28 12:53:54;;;;;;;;;;;22.60;45.60;;;;;;5036666;28;20387;-78
2022/07/28 12:56:20;;;;;;;;;;;22.60;45.60;;;;;;5048063;28;19913;-78
2022/07/28 12:58:46;;;;;;;;;;;22.60;44.80;;;;;;5043764;28;19917;-78
2022/07/28 13:01:11;;;;;;;;;;;22.50;45.20;;;;;;5048798;28;20348;-78
2022/07/28 13:03:44;;;;;;;;;;;22.60;46.50;;;;;;5050134;28;19940;-78
2022/07/28 13:06:10;;;;;;;;;;;22.90;44.80;;;;;;5051262;28;20012;-79
2022/07/28 13:08:43;;;;;;;;;;;23.00;44.90;;;;;;5041373;28;19959;-79
2022/07/28 13:11:09;;;;;;;;;;;23.10;44.20;;;;;;5043051;28;19919;-78
2022/07/28 13:13:56;;;;;;;;;;;23.50;43.40;;;;;;5047546;28;19925;-78
2022/07/28 13:16:23;;;;;;;;;;;23.50;42.80;;;;;;5045274;28;20288;-77
2022/07/28 13:18:52;;;;;;;;;;;23.50;45.20;;;;;;5046594;28;19924;-79
2022/07/28 13:21:37;;;;;;;;;;;23.80;43.40;;;;;;5044773;28;19916;-79
2022/07/28 13:24:03;;;;;;;;;;;23.80;44.00;;;;;;5047178;28;20008;-79
2022/07/28 13:26:30;;;;;;;;;;;23.80;42.80;;;;;;5043462;28;20003;-80
2022/07/28 13:29:00;;;;;;;;;;;23.50;43.70;;;;;;5040998;28;20015;-79
2022/07/28 13:31:25;;;;;;;;;;;23.40;43.40;;;;;;5050097;28;19912;-79
2022/07/28 13:33:51;;;;;;;;;;;23.30;43.90;;;;;;5049510;28;20011;-79
2022/07/28 13:36:16;;;;;;;;;;;23.30;43.50;;;;;;5048519;28;19932;-79
2022/07/28 13:38:41;;;;;;;;;;;23.50;42.40;;;;;;5049933;28;20386;-79
2022/07/28 13:41:07;;;;;;;;;;;23.50;42.80;;;;;;5048455;28;19909;-79
2022/07/28 13:43:32;;;;;;;;;;;23.50;43.10;;;;;;5044223;28;20333;-79
2022/07/28 13:45:58;;;;;;;;;;;23.40;43.90;;;;;;5053133;28;20283;-79
2022/07/28 13:48:23;;;;;;;;;;;23.30;43.00;;;;;;5047212;28;19938;-79
2022/07/28 13:50:49;;;;;;;;;;;23.30;43.30;;;;;;5050991;28;19913;-79
2022/07/28 13:53:14;;;;;;;;;;;23.50;43.60;;;;;;5039197;28;19932;-78
2022/07/28 13:55:40;;;;;;;;;;;23.50;44.20;;;;;;5044966;28;19913;-79
2022/07/28 13:58:05;;;;;;;;;;;23.30;43.60;;;;;;5044942;28;20113;-78
2022/07/28 14:00:31;;;;;;;;;;;23.50;44.80;;;;;;5051160;28;20324;-79
2022/07/28 14:02:56;;;;;;;;;;;23.40;45.40;;;;;;5051365;28;19913;-79
2022/07/28 14:05:22;;;;;;;;;;;23.30;43.60;;;;;;5051945;28;19909;-80
2022/07/28 14:07:48;;;;;;;;;;;23.40;44.80;;;;;;5045638;28;19912;-79
2022/07/28 14:10:13;;;;;;;;;;;23.70;44.00;;;;;;5049193;28;19966;-79
2022/07/28 14:12:39;;;;;;;;;;;23.60;44.10;;;;;;5044315;28;20397;-78
2022/07/28 14:15:05;;;;;;;;;;;23.60;43.70;;;;;;5050139;28;19913;-79
2022/07/28 14:17:31;;;;;;;;;;;23.80;42.50;;;;;;5046031;28;19913;-78
2022/07/28 14:19:56;;;;;;;;;;;23.80;42.70;;;;;;5063901;28;20385;-80